Time;durP1;ratioP1;P1;durP2;ratioP2;P2;SDS_P1;SDS_P2;PMS_P1;PMS_P2;Temp;Humidity;BMP_temperature;BMP_pressure;BME280_temperature;BME280_humidity;BME280_pressure;Samples;Min_cycle;Max_cycle;Signal;HPM_P1;HPM_P2
2023/09/28 00:02:23;;;;;;;22.23;20.33;;;18.10;1.00;;;;;;5123850;27;20472;-71
2023/09/28 00:04:50;;;;;;;21.67;19.80;;;18.10;1.00;;;;;;5127286;27;20480;-72
2023/09/28 00:07:19;;;;;;;21.17;19.13;;;18.10;1.00;;;;;;5125921;27;20485;-72
2023/09/28 00:09:46;;;;;;;22.20;20.20;;;18.10;1.00;;;;;;5117054;27;20542;-72
2023/09/28 00:12:12;;;;;;;22.33;20.43;;;18.10;1.00;;;;;;5106777;27;20541;-72
2023/09/28 00:14:39;;;;;;;21.47;19.50;;;18.10;1.00;;;;;;5114229;27;20474;-72
2023/09/28 00:17:08;;;;;;;19.90;18.03;;;18.00;1.00;;;;;;5110644;27;20244;-72
2023/09/28 00:19:35;;;;;;;19.73;17.93;;;18.00;1.00;;;;;;5108900;27;20495;-72
2023/09/28 00:22:01;;;;;;;18.60;16.90;;;18.00;1.00;;;;;;5094171;27;20467;-72
2023/09/28 00:24:30;;;;;;;21.47;19.67;;;18.00;1.00;;;;;;5094427;27;20467;-73
2023/09/28 00:26:56;;;;;;;20.03;18.20;;;17.90;1.00;;;;;;5100492;27;20893;-73
2023/09/28 00:29:26;;;;;;;19.60;17.90;;;17.90;1.00;;;;;;5114550;27;20471;-72
2023/09/28 00:31:52;;;;;;;20.50;18.60;;;17.90;1.00;;;;;;5109688;27;20244;-72
2023/09/28 00:34:19;;;;;;;20.43;18.63;;;17.90;1.00;;;;;;5107635;27;20512;-73
2023/09/28 00:36:44;;;;;;;20.03;17.97;;;17.80;1.00;;;;;;5104938;27;20302;-72
2023/09/28 00:39:12;;;;;;;19.40;17.53;;;17.80;1.00;;;;;;5113344;27;20490;-73
2023/09/28 00:41:39;;;;;;;20.57;18.80;;;17.80;1.00;;;;;;5111013;27;20465;-72
2023/09/28 00:44:06;;;;;;;19.40;17.60;;;17.70;1.00;;;;;;5111715;27;21436;-72
2023/09/28 00:46:33;;;;;;;20.00;18.23;;;17.70;1.00;;;;;;5111683;27;20459;-72
2023/09/28 00:49:03;;;;;;;19.30;17.50;;;17.70;1.00;;;;;;5109517;27;20470;-72
2023/09/28 00:51:31;;;;;;;22.33;20.07;;;17.70;1.00;;;;;;5107363;27;20465;-72
2023/09/28 00:54:00;;;;;;;20.40;18.33;;;17.60;1.00;;;;;;5108673;27;20997;-72
2023/09/28 00:56:28;;;;;;;19.97;18.17;;;17.60;1.00;;;;;;5111919;27;20512;-68
2023/09/28 00:58:56;;;;;;;20.70;18.70;;;17.50;1.00;;;;;;5110982;27;20475;-68
2023/09/28 01:01:26;;;;;;;20.57;18.57;;;17.50;1.00;;;;;;5108479;27;20544;-69
2023/09/28 01:03:52;;;;;;;21.43;19.37;;;17.50;1.00;;;;;;5109451;27;20498;-69
2023/09/28 01:06:19;;;;;;;20.40;18.57;;;17.50;1.00;;;;;;5112805;27;20458;-69
2023/09/28 01:08:45;;;;;;;19.20;17.63;;;17.50;1.00;;;;;;5109905;27;20568;-72
2023/09/28 01:11:12;;;;;;;21.40;19.00;;;17.40;1.00;;;;;;5099471;27;20458;-68
2023/09/28 01:13:40;;;;;;;20.40;18.53;;;17.40;1.00;;;;;;5101307;27;20472;-69
2023/09/28 01:16:07;;;;;;;21.67;19.70;;;17.30;1.00;;;;;;5092559;27;20451;-69
2023/09/28 01:18:34;;;;;;;20.73;18.93;;;17.40;1.00;;;;;;5098719;27;20527;-69
2023/09/28 01:21:00;;;;;;;20.10;17.97;;;17.40;1.00;;;;;;5110543;27;20940;-70
2023/09/28 01:23:28;;;;;;;20.63;18.83;;;17.30;1.00;;;;;;5107805;27;20462;-72
2023/09/28 01:25:54;;;;;;;19.00;17.37;;;17.30;1.00;;;;;;5110719;27;20457;-69
2023/09/28 01:28:21;;;;;;;21.20;19.27;;;17.30;1.00;;;;;;5110637;27;20465;-68
2023/09/28 01:30:49;;;;;;;20.63;18.63;;;17.20;1.00;;;;;;5109870;27;20489;-72
2023/09/28 01:33:16;;;;;;;20.73;18.90;;;17.20;1.00;;;;;;5111331;27;20474;-69
2023/09/28 01:35:43;;;;;;;21.17;19.27;;;17.10;1.00;;;;;;5100500;27;20454;-68
2023/09/28 01:38:15;;;;;;;19.17;17.43;;;17.10;1.00;;;;;;5111971;27;20448;-69
2023/09/28 01:40:45;;;;;;;18.47;16.90;;;17.10;1.00;;;;;;5094547;27;20776;-69
2023/09/28 01:43:11;;;;;;;17.57;15.90;;;17.10;1.00;;;;;;5103838;27;20588;-71
2023/09/28 01:45:38;;;;;;;18.57;16.87;;;17.10;1.00;;;;;;5115278;27;20485;-68
2023/09/28 01:48:04;;;;;;;18.57;16.97;;;17.00;1.00;;;;;;5110956;27;20484;-69
2023/09/28 01:50:31;;;;;;;19.93;18.20;;;16.90;1.00;;;;;;5109825;27;21839;-69
2023/09/28 01:52:57;;;;;;;17.67;16.17;;;16.90;1.00;;;;;;5107137;27;20477;-69
2023/09/28 01:55:24;;;;;;;18.57;16.67;;;16.90;1.00;;;;;;5091189;28;20462;-69
2023/09/28 01:57:51;;;;;;;22.90;20.83;;;16.80;1.00;;;;;;5089795;28;20361;-70
2023/09/28 02:00:20;;;;;;;17.77;16.20;;;16.80;1.00;;;;;;5089400;28;20585;-71
2023/09/28 02:02:46;;;;;;;19.20;17.20;;;16.80;1.00;;;;;;5098436;27;20458;-70
2023/09/28 02:05:17;;;;;;;18.93;17.17;;;16.80;1.00;;;;;;5113019;27;20454;-69
2023/09/28 02:07:44;;;;;;;19.03;17.07;;;16.90;1.00;;;;;;5109821;27;20584;-72
2023/09/28 02:10:12;;;;;;;18.23;16.47;;;16.90;1.00;;;;;;5116292;27;20449;-73
2023/09/28 02:12:39;;;;;;;16.77;15.03;;;16.80;1.00;;;;;;5111752;27;20493;-72
2023/09/28 02:15:09;;;;;;;18.67;17.00;;;16.80;1.00;;;;;;5107322;27;20441;-74
2023/09/28 02:17:35;;;;;;;19.27;17.27;;;16.80;1.00;;;;;;5114242;27;20452;-72
2023/09/28 02:20:04;;;;;;;21.07;17.97;;;16.70;1.00;;;;;;5110572;27;20495;-72
2023/09/28 02:22:30;;;;;;;19.07;17.30;;;16.60;1.00;;;;;;5110083;27;20470;-73
2023/09/28 02:24:57;;;;;;;17.60;16.20;;;16.60;1.00;;;;;;5116630;27;20460;-74
2023/09/28 02:27:23;;;;;;;17.50;16.00;;;16.50;1.00;;;;;;5113228;27;20461;-74
2023/09/28 02:29:49;;;;;;;18.80;17.20;;;16.50;1.00;;;;;;5110726;27;20541;-74
2023/09/28 02:32:18;;;;;;;19.10;17.33;;;16.50;1.00;;;;;;5113095;27;21348;-74
2023/09/28 02:34:44;;;;;;;19.60;17.57;;;16.40;1.00;;;;;;5109595;27;20494;-73
2023/09/28 02:37:11;;;;;;;17.27;15.50;;;16.30;1.00;;;;;;5112420;27;20853;-73
2023/09/28 02:39:37;;;;;;;16.80;15.33;;;16.30;1.00;;;;;;5115011;27;20474;-75
2023/09/28 02:42:07;;;;;;;17.40;15.97;;;16.30;1.00;;;;;;5110157;27;21262;-74
2023/09/28 02:44:33;;;;;;;17.23;15.63;;;16.30;1.00;;;;;;5110308;27;20462;-73
2023/09/28 02:47:00;;;;;;;19.20;17.40;;;16.30;1.00;;;;;;5113766;27;20464;-73
2023/09/28 02:49:27;;;;;;;20.87;18.87;;;16.30;1.00;;;;;;5108864;27;20454;-76
2023/09/28 02:51:54;;;;;;;16.47;14.90;;;16.30;1.00;;;;;;5110104;27;20528;-75
2023/09/28 02:54:20;;;;;;;18.27;16.50;;;16.20;1.00;;;;;;5109919;27;20448;-74
2023/09/28 02:56:49;;;;;;;17.50;15.93;;;16.20;1.00;;;;;;5112654;27;20972;-74
2023/09/28 02:59:21;;;;;;;19.40;17.60;;;16.10;1.00;;;;;;5109944;27;21169;-74
2023/09/28 03:01:49;;;;;;;16.17;14.70;;;16.10;1.00;;;;;;5101277;27;20479;-73
2023/09/28 03:04:15;;;;;;;17.03;15.50;;;16.10;1.00;;;;;;5112877;27;20476;-75
2023/09/28 03:06:44;;;;;;;17.70;16.07;;;16.00;1.00;;;;;;5112308;27;20953;-76
2023/09/28 03:09:12;;;;;;;21.63;19.47;;;16.00;1.00;;;;;;5105389;27;20473;-75
2023/09/28 03:11:39;;;;;;;17.07;15.47;;;16.10;1.00;;;;;;5112485;27;20468;-74
2023/09/28 03:14:06;;;;;;;17.93;15.63;;;16.10;1.00;;;;;;5106019;27;20454;-74
2023/09/28 03:16:33;;;;;;;16.93;15.33;;;16.10;1.00;;;;;;5111269;27;20512;-73
2023/09/28 03:19:00;;;;;;;17.47;15.97;;;16.10;1.00;;;;;;5095833;27;20457;-74
2023/09/28 03:21:29;;;;;;;17.73;15.93;;;16.00;1.00;;;;;;5110770;27;20460;-73
2023/09/28 03:23:58;;;;;;;19.87;18.07;;;16.00;1.00;;;;;;5093251;27;20560;-73
2023/09/28 03:26:24;;;;;;;17.13;15.80;;;16.00;1.00;;;;;;5105049;27;21151;-73
2023/09/28 03:28:52;;;;;;;16.27;14.97;;;15.90;1.00;;;;;;5107318;27;20589;-73
2023/09/28 03:31:18;;;;;;;18.57;16.83;;;15.90;1.00;;;;;;5109571;27;20794;-72
2023/09/28 03:33:45;;;;;;;17.17;15.63;;;16.00;1.00;;;;;;5108549;27;20438;-73
2023/09/28 03:36:12;;;;;;;17.13;15.70;;;15.90;1.00;;;;;;5106892;27;20982;-73
2023/09/28 03:38:39;;;;;;;20.37;18.23;;;15.90;1.00;;;;;;5105897;27;20441;-73
2023/09/28 03:41:08;;;;;;;23.33;16.37;;;15.80;1.00;;;;;;5097810;27;20611;-73
2023/09/28 03:43:35;;;;;;;16.90;15.33;;;15.80;1.00;;;;;;5091892;28;20460;-74
2023/09/28 03:46:03;;;;;;;16.20;14.70;;;15.80;1.00;;;;;;5108232;27;20457;-72
2023/09/28 03:48:33;;;;;;;16.00;14.53;;;15.80;1.00;;;;;;5110318;27;20457;-73
2023/09/28 03:51:00;;;;;;;15.67;14.27;;;15.80;1.00;;;;;;5114801;27;20482;-73
2023/09/28 03:53:26;;;;;;;17.90;16.20;;;15.80;1.00;;;;;;5116439;27;20577;-73
2023/09/28 03:55:54;;;;;;;19.57;15.63;;;15.80;1.00;;;;;;5118325;27;20556;-73
2023/09/28 03:58:22;;;;;;;16.90;15.20;;;15.80;1.00;;;;;;5112078;27;20472;-73
2023/09/28 04:00:49;;;;;;;18.27;16.67;;;15.80;1.00;;;;;;5090659;27;20494;-73
2023/09/28 04:03:16;;;;;;;17.30;15.80;;;15.80;1.00;;;;;;5090675;27;20446;-73
2023/09/28 04:05:43;;;;;;;18.43;16.77;;;15.70;1.00;;;;;;5106538;27;20461;-74
2023/09/28 04:08:10;;;;;;;20.20;18.27;;;15.70;1.00;;;;;;5114061;27;20487;-72
2023/09/28 04:10:37;;;;;;;16.87;15.30;;;15.70;1.00;;;;;;5112553;27;20973;-73
2023/09/28 04:13:04;;;;;;;17.90;16.00;;;15.60;1.00;;;;;;5110470;27;21019;-72
2023/09/28 04:15:33;;;;;;;16.80;15.10;;;15.70;1.00;;;;;;5097208;27;21473;-73
2023/09/28 04:18:00;;;;;;;20.17;16.37;;;15.70;1.00;;;;;;5099951;27;20826;-73
2023/09/28 04:20:27;;;;;;;16.53;14.67;;;15.70;1.00;;;;;;5115545;27;20436;-74
2023/09/28 04:22:54;;;;;;;16.60;15.07;;;15.70;1.00;;;;;;5112707;27;20526;-73
2023/09/28 04:25:21;;;;;;;16.90;15.20;;;15.80;1.00;;;;;;5110105;27;20462;-73
2023/09/28 04:27:49;;;;;;;18.30;16.40;;;15.80;1.00;;;;;;5108863;27;20844;-70
2023/09/28 04:30:16;;;;;;;17.87;16.07;;;15.70;1.00;;;;;;5110705;27;20469;-70
2023/09/28 04:32:45;;;;;;;17.97;16.20;;;15.70;1.00;;;;;;5097089;27;20531;-71
2023/09/28 04:35:13;;;;;;;18.43;15.17;;;15.70;1.00;;;;;;5103432;27;20457;-70
2023/09/28 04:37:40;;;;;;;17.53;15.80;;;15.70;1.00;;;;;;5104830;27;20508;-70
2023/09/28 04:40:09;;;;;;;16.70;15.17;;;15.70;1.00;;;;;;5092395;28;20463;-69
2023/09/28 04:42:36;;;;;;;18.27;16.53;;;15.70;1.00;;;;;;5107678;27;20483;-70
2023/09/28 04:45:04;;;;;;;19.27;17.27;;;15.70;1.00;;;;;;5111949;27;20521;-69
2023/09/28 04:47:32;;;;;;;26.80;23.83;;;15.60;1.00;;;;;;5111920;27;20482;-72
2023/09/28 04:50:01;;;;;;;70.43;63.63;;;15.60;1.00;;;;;;5112820;27;20559;-71
2023/09/28 04:52:28;;;;;;;17.70;15.90;;;15.60;1.00;;;;;;5110988;27;20544;-71
2023/09/28 04:54:55;;;;;;;23.10;20.80;;;15.50;1.00;;;;;;5112307;27;20465;-70
2023/09/28 04:57:24;;;;;;;18.77;16.90;;;15.40;1.00;;;;;;5111902;27;20441;-70
2023/09/28 04:59:51;;;;;;;19.00;16.70;;;15.50;1.00;;;;;;5111420;27;20476;-71
2023/09/28 05:02:19;;;;;;;17.70;16.00;;;15.50;1.00;;;;;;5102213;27;20464;-70
2023/09/28 05:04:45;;;;;;;19.47;17.70;;;15.50;1.00;;;;;;5103109;27;20452;-71
2023/09/28 05:07:14;;;;;;;17.90;16.30;;;15.50;1.00;;;;;;5107813;27;20576;-72
2023/09/28 05:09:42;;;;;;;18.10;16.50;;;15.40;1.00;;;;;;5102865;27;20900;-74
2023/09/28 05:12:09;;;;;;;18.03;16.23;;;15.50;1.00;;;;;;5102446;27;20441;-70
2023/09/28 05:14:36;;;;;;;17.50;15.80;;;15.50;1.00;;;;;;5112805;27;20484;-69
2023/09/28 05:17:03;;;;;;;18.70;17.00;;;15.50;1.00;;;;;;5113467;27;20476;-72
2023/09/28 05:19:31;;;;;;;18.67;16.77;;;15.50;1.00;;;;;;5109877;27;20473;-69
2023/09/28 05:21:58;;;;;;;16.77;15.33;;;15.50;1.00;;;;;;5109671;27;21180;-70
2023/09/28 05:24:26;;;;;;;19.10;17.13;;;15.50;1.00;;;;;;5111999;27;20551;-68
2023/09/28 05:26:54;;;;;;;18.67;16.90;;;15.40;1.00;;;;;;5115159;27;20469;-68
2023/09/28 05:29:22;;;;;;;19.70;17.60;;;15.30;1.00;;;;;;5108361;27;20481;-68
2023/09/28 05:31:49;;;;;;;19.50;17.63;;;15.30;1.00;;;;;;5110359;27;20475;-70
2023/09/28 05:34:16;;;;;;;17.90;16.07;;;15.30;1.00;;;;;;5112087;27;20491;-69
2023/09/28 05:36:43;;;;;;;18.30;16.37;;;15.30;1.00;;;;;;5111184;27;20849;-71
2023/09/28 05:39:12;;;;;;;21.60;17.40;;;15.30;1.00;;;;;;5113451;27;20921;-69
2023/09/28 05:41:41;;;;;;;17.77;16.07;;;15.40;1.00;;;;;;5112482;27;21047;-71
2023/09/28 05:44:08;;;;;;;21.30;18.80;;;15.40;1.00;;;;;;5112142;27;20448;-71
2023/09/28 05:46:36;;;;;;;20.40;16.70;;;15.30;1.00;;;;;;5094004;27;20468;-69
2023/09/28 05:49:05;;;;;;;19.20;17.30;;;15.30;1.00;;;;;;5106641;27;20491;-69
2023/09/28 05:51:32;;;;;;;17.50;15.90;;;15.30;1.00;;;;;;5105171;27;21070;-73
2023/09/28 05:54:00;;;;;;;18.10;16.20;;;15.40;1.00;;;;;;5090878;28;20470;-72
2023/09/28 05:56:27;;;;;;;22.77;16.23;;;15.50;1.00;;;;;;5105217;27;20461;-70
2023/09/28 05:58:55;;;;;;;52.93;42.57;;;15.50;1.00;;;;;;5109553;27;20568;-70
2023/09/28 06:01:23;;;;;;;18.33;16.53;;;15.60;1.00;;;;;;5101355;27;20507;-70
2023/09/28 06:03:50;;;;;;;17.40;15.77;;;15.60;1.00;;;;;;5089785;27;20468;-70
2023/09/28 06:06:18;;;;;;;17.53;15.93;;;15.70;1.00;;;;;;5086936;28;20470;-70
2023/09/28 06:08:47;;;;;;;17.93;16.33;;;15.80;1.00;;;;;;5098326;27;20571;-71
2023/09/28 06:11:15;;;;;;;17.20;15.60;;;15.80;1.00;;;;;;5105014;27;20604;-69
2023/09/28 06:13:43;;;;;;;17.37;15.83;;;15.70;1.00;;;;;;5095982;27;20464;-69
2023/09/28 06:16:13;;;;;;;17.10;15.60;;;15.70;1.00;;;;;;5112789;27;20453;-70
2023/09/28 06:18:40;;;;;;;16.40;14.90;;;15.80;1.00;;;;;;5111595;27;20461;-68
2023/09/28 06:21:07;;;;;;;16.70;15.07;;;15.90;1.00;;;;;;5110267;27;20465;-70
2023/09/28 06:23:36;;;;;;;19.47;16.70;;;16.00;1.00;;;;;;5110185;27;20472;-68
2023/09/28 06:26:03;;;;;;;17.17;15.40;;;15.90;1.00;;;;;;5105686;27;20484;-69
2023/09/28 06:28:31;;;;;;;17.97;16.47;;;16.00;1.00;;;;;;5095641;27;20473;-68
2023/09/28 06:30:58;;;;;;;19.93;15.30;;;16.10;1.00;;;;;;5109789;27;20945;-68
2023/09/28 06:33:27;;;;;;;23.80;16.70;;;16.20;1.00;;;;;;5110663;27;20542;-68
2023/09/28 06:35:57;;;;;;;16.70;15.00;;;16.20;1.00;;;;;;5108246;27;20497;-71
2023/09/28 06:38:24;;;;;;;17.73;15.83;;;16.20;1.00;;;;;;5111993;27;20501;-68
2023/09/28 06:40:51;;;;;;;19.90;16.70;;;16.30;1.00;;;;;;5101660;27;20456;-70
2023/09/28 06:43:20;;;;;;;18.17;16.27;;;16.40;1.00;;;;;;5105943;27;20531;-72
2023/09/28 06:45:46;;;;;;;20.57;16.60;;;16.50;1.00;;;;;;5105274;27;20537;-70
2023/09/28 06:48:13;;;;;;;17.83;16.07;;;16.60;1.00;;;;;;5103528;27;20944;-72
2023/09/28 06:50:42;;;;;;;18.60;16.60;;;16.70;1.00;;;;;;5107122;27;20525;-74
2023/09/28 06:53:09;;;;;;;17.47;15.80;;;16.80;1.00;;;;;;5109556;27;20481;-74
2023/09/28 06:55:36;;;;;;;21.40;16.67;;;16.90;1.00;;;;;;5110943;27;20458;-72
2023/09/28 06:58:06;;;;;;;18.23;16.37;;;17.00;1.00;;;;;;5111404;27;20630;-72
2023/09/28 07:00:33;;;;;;;17.87;16.00;;;17.20;1.00;;;;;;5109767;27;21034;-72
2023/09/28 07:03:00;;;;;;;17.80;15.83;;;17.40;1.00;;;;;;5109597;27;20450;-74
2023/09/28 07:05:27;;;;;;;18.87;16.97;;;17.60;1.00;;;;;;5111679;27;20543;-73
2023/09/28 07:07:56;;;;;;;18.47;15.77;;;17.80;1.00;;;;;;5101741;27;20561;-73
2023/09/28 07:10:23;;;;;;;19.20;16.00;;;18.00;1.00;;;;;;5092553;28;21263;-73
2023/09/28 07:12:50;;;;;;;16.23;14.80;;;18.10;1.00;;;;;;5106779;27;20467;-73
2023/09/28 07:15:17;;;;;;;17.47;15.60;;;18.20;1.00;;;;;;5111133;27;20538;-74
2023/09/28 07:17:44;;;;;;;17.50;15.70;;;18.30;1.00;;;;;;5109822;27;20546;-73
2023/09/28 07:20:14;;;;;;;18.30;16.70;;;18.40;1.00;;;;;;5109436;27;20972;-75
2023/09/28 07:22:41;;;;;;;16.30;14.70;;;18.60;1.00;;;;;;5103590;27;20446;-74
2023/09/28 07:25:10;;;;;;;16.90;14.97;;;18.60;1.00;;;;;;5107564;27;20560;-74
2023/09/28 07:27:37;;;;;;;16.10;14.47;;;18.70;1.00;;;;;;5091350;28;20857;-74
2023/09/28 07:30:06;;;;;;;17.97;16.20;;;18.70;1.00;;;;;;5113338;27;20553;-75
2023/09/28 07:32:34;;;;;;;17.00;15.50;;;18.80;1.00;;;;;;5117955;27;20489;-74
2023/09/28 07:35:02;;;;;;;17.73;16.13;;;18.80;1.00;;;;;;5112652;27;20833;-74
2023/09/28 07:37:29;;;;;;;16.70;15.23;;;19.00;1.00;;;;;;5113038;27;20475;-73
2023/09/28 07:39:56;;;;;;;16.60;14.90;;;19.10;1.00;;;;;;5108597;27;20451;-75
2023/09/28 07:42:25;;;;;;;17.13;15.63;;;19.10;1.00;;;;;;5115939;27;20461;-74
2023/09/28 07:44:52;;;;;;;17.33;15.77;;;19.20;1.00;;;;;;5098722;27;21125;-76
2023/09/28 07:47:20;;;;;;;16.97;15.27;;;19.30;1.00;;;;;;5099458;28;20474;-75
2023/09/28 07:49:48;;;;;;;17.80;16.10;;;19.30;1.00;;;;;;5113238;27;20453;-73
2023/09/28 07:52:15;;;;;;;16.80;15.13;;;19.50;1.00;;;;;;5113764;27;20531;-75
2023/09/28 07:54:43;;;;;;;16.57;14.97;;;19.50;1.00;;;;;;5109708;27;21864;-74
2023/09/28 07:57:10;;;;;;;16.47;14.97;;;19.60;1.00;;;;;;5111964;27;20467;-76
2023/09/28 07:59:39;;;;;;;18.23;15.37;;;19.80;1.00;;;;;;5111768;27;20459;-75
2023/09/28 08:02:09;;;;;;;16.40;14.87;;;19.90;1.00;;;;;;5117512;27;23508;-74
2023/09/28 08:04:36;;;;;;;16.90;14.70;;;20.00;1.00;;;;;;5115712;27;20968;-76
2023/09/28 08:07:04;;;;;;;17.10;15.40;;;20.20;1.00;;;;;;5116893;27;20481;-73
2023/09/28 08:09:32;;;;;;;16.60;14.80;;;20.30;1.00;;;;;;5114576;27;20553;-74
2023/09/28 08:11:59;;;;;;;16.43;15.10;;;20.40;1.00;;;;;;5114897;27;20466;-75
2023/09/28 08:14:27;;;;;;;16.07;14.70;;;20.50;1.00;;;;;;5114558;27;20474;-74
2023/09/28 08:16:56;;;;;;;17.07;15.17;;;20.60;1.00;;;;;;5098270;27;20486;-74
2023/09/28 08:19:23;;;;;;;16.47;14.77;;;20.80;1.00;;;;;;5113058;27;20988;-74
2023/09/28 08:21:50;;;;;;;21.10;18.27;;;20.80;1.00;;;;;;5103533;27;20495;-77
2023/09/28 08:24:18;;;;;;;16.10;14.50;;;21.00;1.00;;;;;;5094942;27;20511;-74
2023/09/28 08:26:45;;;;;;;15.47;14.07;;;21.20;1.00;;;;;;5119030;27;20497;-75
2023/09/28 08:29:13;;;;;;;16.83;15.20;;;21.20;1.00;;;;;;5096162;28;20478;-75
2023/09/28 08:31:40;;;;;;;16.67;15.10;;;21.20;1.00;;;;;;5090997;28;20459;-74
2023/09/28 08:34:09;;;;;;;16.07;14.67;;;21.40;1.00;;;;;;5106198;27;20523;-77
2023/09/28 08:36:36;;;;;;;17.10;15.43;;;21.50;1.00;;;;;;5114420;27;20548;-73
2023/09/28 08:39:04;;;;;;;16.00;14.60;;;21.60;1.00;;;;;;5115300;27;20464;-74
2023/09/28 08:41:43;;;;;;;15.33;14.03;;;21.70;1.00;;;;;;5118330;27;20544;-74
2023/09/28 08:44:10;;;;;;;15.77;14.30;;;21.90;1.00;;;;;;5115027;27;20468;-76
2023/09/28 08:46:38;;;;;;;16.20;14.50;;;22.00;1.00;;;;;;5114796;27;20921;-74
2023/09/28 08:49:06;;;;;;;17.50;14.57;;;22.30;1.00;;;;;;5109375;27;20780;-73
2023/09/28 08:51:36;;;;;;;15.20;13.73;;;22.60;1.00;;;;;;5114228;27;22686;-75
2023/09/28 08:54:05;;;;;;;15.93;14.53;;;22.90;1.00;;;;;;5117604;27;20483;-75
2023/09/28 08:56:34;;;;;;;15.00;13.70;;;23.10;1.00;;;;;;5115036;27;20491;-75
2023/09/28 08:59:03;;;;;;;15.20;13.87;;;23.40;1.00;;;;;;5117968;27;20468;-76
2023/09/28 09:01:31;;;;;;;15.53;14.00;;;23.80;1.00;;;;;;5115581;27;20457;-74
2023/09/28 09:03:58;;;;;;;14.30;12.87;;;24.90;1.00;;;;;;5107773;27;20547;-75
2023/09/28 09:06:28;;;;;;;14.83;13.47;;;26.00;1.00;;;;;;5117288;27;20473;-75
2023/09/28 09:09:01;;;;;;;16.70;14.07;;;27.30;1.00;;;;;;5106758;27;20481;-75
2023/09/28 09:11:31;;;;;;;15.00;13.63;;;28.80;1.00;;;;;;5095973;28;20972;-73
2023/09/28 09:13:59;;;;;;;15.07;13.10;;;30.10;1.00;;;;;;5103856;27;20448;-75
2023/09/28 09:16:27;;;;;;;13.23;12.23;;;30.90;1.00;;;;;;5116631;27;20469;-77
2023/09/28 09:18:56;;;;;;;15.40;13.83;;;31.80;1.00;;;;;;5115616;27;20445;-73
2023/09/28 09:21:24;;;;;;;13.87;12.47;;;32.40;1.00;;;;;;5113374;27;20477;-75
2023/09/28 09:24:12;;;;;;;12.90;11.80;;;32.80;1.00;;;;;;5110470;27;20564;-76
2023/09/28 09:26:40;;;;;;;13.50;12.30;;;33.50;1.00;;;;;;5110874;27;20547;-76
2023/09/28 09:29:08;;;;;;;14.10;12.90;;;33.80;1.00;;;;;;5115418;27;20949;-77
2023/09/28 09:31:39;;;;;;;13.43;12.43;;;34.30;1.00;;;;;;5114651;27;20477;-75
2023/09/28 09:34:06;;;;;;;13.60;12.57;;;35.20;1.00;;;;;;5111983;27;20456;-74
2023/09/28 09:36:33;;;;;;;13.80;12.60;;;34.30;1.00;;;;;;5118208;27;20520;-76
2023/09/28 09:39:01;;;;;;;14.80;13.40;;;34.30;1.00;;;;;;5111217;27;20570;-74
2023/09/28 09:41:44;;;;;;;13.20;12.20;;;34.00;1.00;;;;;;5104700;27;20456;-76
2023/09/28 09:44:12;;;;;;;13.17;12.27;;;34.30;1.00;;;;;;5112354;27;21056;-77
2023/09/28 09:46:39;;;;;;;12.30;11.40;;;34.30;1.00;;;;;;5114596;27;20478;-76
2023/09/28 09:49:07;;;;;;;13.10;11.50;;;34.60;1.00;;;;;;5081770;28;20450;-75
2023/09/28 09:51:39;;;;;;;11.47;10.47;;;35.10;1.00;;;;;;5093878;27;20466;-75
2023/09/28 09:54:11;;;;;;;13.00;12.00;;;35.20;1.00;;;;;;5111693;27;20450;-75
2023/09/28 09:59:24;;;;;;;13.60;11.70;;;33.50;1.00;;;;;;5114956;27;20469;-76
2023/09/28 10:01:53;;;;;;;13.03;11.83;;;32.80;1.00;;;;;;5108084;27;21242;-77
2023/09/28 10:04:24;;;;;;;11.47;10.40;;;32.50;1.00;;;;;;5114413;27;20426;-75
2023/09/28 10:06:56;;;;;;;12.00;10.73;;;33.00;1.00;;;;;;5112930;27;20603;-76
2023/09/28 10:09:26;;;;;;;10.67;9.77;;;33.60;1.00;;;;;;5105866;27;20537;-76
2023/09/28 10:11:55;;;;;;;10.70;9.90;;;33.50;1.00;;;;;;5093168;28;20458;-75
2023/09/28 10:14:22;;;;;;;11.70;10.80;;;33.90;1.00;;;;;;5098317;27;20588;-75
2023/09/28 10:16:54;;;;;;;10.87;9.97;;;35.10;1.00;;;;;;5105948;27;21676;-70
2023/09/28 10:19:24;;;;;;;11.47;10.40;;;36.20;1.00;;;;;;5092435;28;20530;-70
2023/09/28 10:21:52;;;;;;;11.80;9.10;;;37.50;1.00;;;;;;5105121;27;20449;-70
2023/09/28 10:24:31;;;;;;;10.30;8.27;;;38.30;1.00;;;;;;5105752;27;20921;-71
2023/09/28 10:27:09;;;;;;;11.10;9.87;;;38.50;1.00;;;;;;5108971;27;20559;-70
2023/09/28 10:29:36;;;;;;;8.93;8.20;;;39.10;1.00;;;;;;5108118;27;20463;-70
2023/09/28 10:32:13;;;;;;;11.13;9.40;;;39.30;1.00;;;;;;5100036;27;20466;-70
2023/09/28 10:34:43;;;;;;;10.47;9.60;;;39.40;1.00;;;;;;5111196;27;20569;-69
2023/09/28 10:37:20;;;;;;;8.83;8.10;;;39.80;1.00;;;;;;5112526;27;20474;-70
2023/09/28 10:39:52;;;;;;;10.70;9.90;;;40.40;1.00;;;;;;5114490;27;20536;-70
2023/09/28 10:42:22;;;;;;;10.20;8.83;;;39.90;1.00;;;;;;5111454;27;20876;-70
2023/09/28 10:44:51;;;;;;;8.00;7.33;;;39.00;1.00;;;;;;5104246;27;20465;-70
2023/09/28 10:47:19;;;;;;;8.50;7.90;;;38.10;1.00;;;;;;5113277;27;20562;-71
2023/09/28 10:49:48;;;;;;;7.20;6.60;;;38.00;1.00;;;;;;5112536;27;20457;-69
2023/09/28 10:52:16;;;;;;;9.20;7.10;;;38.50;1.00;;;;;;5111295;27;20503;-72
2023/09/28 10:54:45;;;;;;;7.20;6.60;;;38.90;1.00;;;;;;5113515;27;20546;-71
2023/09/28 10:57:12;;;;;;;10.27;7.60;;;39.30;1.00;;;;;;5091293;27;20549;-73
2023/09/28 10:59:41;;;;;;;7.07;6.40;;;39.40;1.00;;;;;;5113086;27;20543;-70
2023/09/28 11:02:08;;;;;;;7.83;7.17;;;40.00;1.00;;;;;;5105125;27;20454;-70
2023/09/28 11:04:39;;;;;;;6.90;6.40;;;40.60;1.00;;;;;;5111213;27;21018;-71
2023/09/28 11:07:07;;;;;;;8.00;7.30;;;41.30;1.00;;;;;;5099590;27;20473;-71
2023/09/28 11:09:34;;;;;;;7.67;7.07;;;41.70;1.00;;;;;;5109222;27;20453;-71
2023/09/28 11:12:08;;;;;;;6.60;6.00;;;42.00;1.00;;;;;;5106851;27;20458;-71
2023/09/28 11:14:36;;;;;;;8.07;7.27;;;42.80;1.00;;;;;;5110044;27;20448;-74
2023/09/28 11:17:05;;;;;;;6.07;5.67;;;43.30;1.00;;;;;;5114201;27;20474;-71
2023/09/28 11:19:32;;;;;;;6.30;5.83;;;42.90;1.00;;;;;;5110463;27;20924;-70
2023/09/28 11:22:00;;;;;;;6.57;5.97;;;42.30;1.00;;;;;;5106821;27;20483;-71
2023/09/28 11:24:27;;;;;;;6.37;5.77;;;42.30;1.00;;;;;;5107150;27;20554;-71
2023/09/28 11:26:56;;;;;;;7.33;6.37;;;42.70;1.00;;;;;;5110622;27;20476;-75
2023/09/28 11:29:23;;;;;;;6.10;5.70;;;43.10;1.00;;;;;;5105255;27;20859;-76
2023/09/28 11:31:53;;;;;;;5.73;5.37;;;43.80;1.00;;;;;;5109794;27;20460;-76
2023/09/28 11:34:29;;;;;;;5.90;5.40;;;43.60;1.00;;;;;;5112298;27;20506;-74
2023/09/28 11:36:58;;;;;;;6.70;6.10;;;43.80;1.00;;;;;;5110519;27;20475;-77
2023/09/28 11:39:26;;;;;;;6.00;5.60;;;44.20;1.00;;;;;;5093241;27;20457;-76
2023/09/28 11:42:01;;;;;;;6.30;5.90;;;44.40;1.00;;;;;;5111921;27;21791;-78
2023/09/28 11:44:29;;;;;;;6.77;6.13;;;44.70;1.00;;;;;;5098233;27;20453;-76
2023/09/28 11:46:57;;;;;;;6.43;5.93;;;45.90;1.00;;;;;;5107927;27;20480;-77
2023/09/28 11:49:27;;;;;;;8.00;5.30;;;46.10;1.00;;;;;;5106990;27;20893;-75
2023/09/28 11:51:56;;;;;;;6.77;6.13;;;46.20;1.00;;;;;;5111863;27;21015;-74
2023/09/28 11:54:24;;;;;;;5.87;5.30;;;46.50;1.00;;;;;;5108367;27;20485;-76
2023/09/28 11:56:54;;;;;;;5.17;4.87;;;46.50;1.00;;;;;;5108824;27;20984;-74
2023/09/28 11:59:21;;;;;;;5.70;5.30;;;46.00;1.00;;;;;;5113355;27;20460;-75
2023/09/28 12:01:52;;;;;;;6.47;5.87;;;45.80;1.00;;;;;;5110413;27;20480;-76
2023/09/28 12:04:19;;;;;;;6.47;5.30;;;46.00;1.00;;;;;;5112889;27;20457;-75
2023/09/28 12:06:47;;;;;;;23.03;21.13;;;45.50;1.00;;;;;;5111102;27;20554;-76
2023/09/28 12:09:18;;;;;;;6.33;5.80;;;45.30;1.00;;;;;;5112697;27;20458;-75
2023/09/28 12:11:48;;;;;;;5.30;4.80;;;45.80;1.00;;;;;;5112184;27;20457;-76
2023/09/28 12:14:15;;;;;;;6.07;5.57;;;45.70;1.00;;;;;;5113384;27;20470;-77
2023/09/28 12:16:42;;;;;;;5.70;5.30;;;43.90;1.00;;;;;;5105718;27;20607;-74
2023/09/28 12:19:09;;;;;;;5.50;5.10;;;42.40;1.00;;;;;;5112687;27;20971;-75
2023/09/28 12:21:37;;;;;;;7.80;5.37;;;41.10;1.00;;;;;;5114043;27;20453;-77
2023/09/28 12:24:05;;;;;;;6.03;5.53;;;39.40;1.00;;;;;;5115621;27;20448;-74
2023/09/28 12:26:35;;;;;;;7.20;6.50;;;37.90;1.00;;;;;;5110628;27;20458;-75
2023/09/28 12:29:02;;;;;;;8.50;6.30;;;36.70;1.00;;;;;;5103446;27;20461;-74
2023/09/28 12:31:29;;;;;;;7.17;6.47;;;35.70;1.00;;;;;;5101540;27;20475;-77
2023/09/28 12:33:56;;;;;;;6.43;5.93;;;34.70;1.00;;;;;;5116252;27;20489;-78
2023/09/28 12:36:23;;;;;;;7.30;6.70;;;34.30;1.00;;;;;;5116612;27;20484;-79
2023/09/28 12:38:51;;;;;;;6.90;6.40;;;34.20;1.00;;;;;;5114282;27;20489;-71
2023/09/28 12:41:18;;;;;;;6.50;5.90;;;35.70;1.00;;;;;;5111605;27;21149;-69
2023/09/28 12:43:46;;;;;;;7.00;6.30;;;37.50;1.00;;;;;;5111240;27;20530;-69
2023/09/28 12:46:14;;;;;;;6.87;6.30;;;37.70;1.00;;;;;;5102228;27;20882;-71
2023/09/28 12:48:42;;;;;;;6.33;5.83;;;37.30;1.00;;;;;;5108616;27;20531;-70